sensor_id;sensor_type;location;lat;lon;timestamp;temperature;humidity
16102;DHT22;56411;52.964;10.540;2023-08-21T02:06:41;15.60;99.90
16102;DHT22;56411;52.964;10.540;2023-08-21T03:01:09;15.00;99.90
16102;DHT22;56411;52.964;10.540;2023-08-21T03:04:07;14.90;99.90
16102;DHT22;56411;52.964;10.540;2023-08-21T05:30:26;15.50;99.90
16102;DHT22;56411;52.964;10.540;2023-08-21T05:32:55;15.50;99.90
16102;DHT22;56411;52.964;10.540;2023-08-21T05:35:22;15.60;99.90
16102;DHT22;56411;52.964;10.540;2023-08-21T05:37:50;15.60;99.90
16102;DHT22;56411;52.964;10.540;2023-08-21T05:40:17;15.70;99.90
16102;DHT22;56411;52.964;10.540;2023-08-21T05:42:45;15.80;99.90
16102;DHT22;56411;52.964;10.540;2023-08-21T05:45:12;15.90;99.90
16102;DHT22;56411;52.964;10.540;2023-08-21T05:47:40;16.00;99.90
16102;DHT22;56411;52.964;10.540;2023-08-21T05:50:08;16.00;99.90
16102;DHT22;56411;52.964;10.540;2023-08-21T05:52:35;16.10;99.90
16102;DHT22;56411;52.964;10.540;2023-08-21T05:55:03;16.20;99.90
16102;DHT22;56411;52.964;10.540;2023-08-21T05:57:30;16.30;99.90
16102;DHT22;56411;52.964;10.540;2023-08-21T05:59:57;16.40;99.90
16102;DHT22;56411;52.964;10.540;2023-08-21T06:02:24;16.50;99.90
16102;DHT22;56411;52.964;10.540;2023-08-21T06:04:53;16.60;99.90
16102;DHT22;56411;52.964;10.540;2023-08-21T06:07:20;16.70;99.90
16102;DHT22;56411;52.964;10.540;2023-08-21T06:09:47;16.70;99.90
16102;DHT22;56411;52.964;10.540;2023-08-21T06:12:14;16.90;99.90
16102;DHT22;56411;52.964;10.540;2023-08-21T06:14:41;17.10;99.90
16102;DHT22;56411;52.964;10.540;2023-08-21T06:17:09;17.20;99.90
16102;DHT22;56411;52.964;10.540;2023-08-21T06:19:36;17.30;99.90
16102;DHT22;56411;52.964;10.540;2023-08-21T06:22:05;17.30;99.90
16102;DHT22;56411;52.964;10.540;2023-08-21T06:24:32;17.40;99.90
16102;DHT22;56411;52.964;10.540;2023-08-21T06:26:59;17.40;99.90
16102;DHT22;56411;52.964;10.540;2023-08-21T06:29:26;17.50;99.90
16102;DHT22;56411;52.964;10.540;2023-08-21T06:31:53;17.60;99.90
16102;DHT22;56411;52.964;10.540;2023-08-21T06:34:21;17.70;99.90
16102;DHT22;56411;52.964;10.540;2023-08-21T06:36:48;17.80;99.90
16102;DHT22;56411;52.964;10.540;2023-08-21T06:39:17;17.90;99.90
16102;DHT22;56411;52.964;10.540;2023-08-21T06:41:44;18.00;99.90
16102;DHT22;56411;52.964;10.540;2023-08-21T06:44:11;18.10;99.90
16102;DHT22;56411;52.964;10.540;2023-08-21T06:46:38;18.20;99.90
16102;DHT22;56411;52.964;10.540;2023-08-21T06:49:05;18.20;99.90
16102;DHT22;56411;52.964;10.540;2023-08-21T06:51:32;18.30;99.90
16102;DHT22;56411;52.964;10.540;2023-08-21T06:54:00;18.40;99.90
16102;DHT22;56411;52.964;10.540;2023-08-21T06:56:28;18.60;99.90
16102;DHT22;56411;52.964;10.540;2023-08-21T06:58:55;18.70;99.90
16102;DHT22;56411;52.964;10.540;2023-08-21T07:01:22;18.90;99.90
16102;DHT22;56411;52.964;10.540;2023-08-21T07:03:49;19.00;99.90
16102;DHT22;56411;52.964;10.540;2023-08-21T07:06:17;19.10;99.90
16102;DHT22;56411;52.964;10.540;2023-08-21T07:08:44;19.20;99.90
16102;DHT22;56411;52.964;10.540;2023-08-21T07:11:11;19.40;99.90
16102;DHT22;56411;52.964;10.540;2023-08-21T07:13:41;19.50;99.90
16102;DHT22;56411;52.964;10.540;2023-08-21T07:16:08;19.60;99.90
16102;DHT22;56411;52.964;10.540;2023-08-21T07:18:35;19.70;99.90
16102;DHT22;56411;52.964;10.540;2023-08-21T07:21:02;19.80;99.90
16102;DHT22;56411;52.964;10.540;2023-08-21T07:23:30;19.90;99.90
16102;DHT22;56411;52.964;10.540;2023-08-21T07:26:20;20.00;99.90
16102;DHT22;56411;52.964;10.540;2023-08-21T07:29:06;20.00;99.90
16102;DHT22;56411;52.964;10.540;2023-08-21T07:31:38;20.20;99.90
16102;DHT22;56411;52.964;10.540;2023-08-21T07:34:21;20.10;99.90
16102;DHT22;56411;52.964;10.540;2023-08-21T07:36:54;20.20;99.90
16102;DHT22;56411;52.964;10.540;2023-08-21T07:40:10;20.20;99.90
16102;DHT22;56411;52.964;10.540;2023-08-21T08:45:47;22.10;99.90
16102;DHT22;56411;52.964;10.540;2023-08-21T08:48:31;22.20;99.90
16102;DHT22;56411;52.964;10.540;2023-08-21T08:51:03;22.10;99.90
16102;DHT22;56411;52.964;10.540;2023-08-21T08:53:34;22.20;99.90
16102;DHT22;56411;52.964;10.540;2023-08-21T08:56:01;22.20;99.90
16102;DHT22;56411;52.964;10.540;2023-08-21T08:58:29;22.20;99.90
16102;DHT22;56411;52.964;10.540;2023-08-21T09:00:58;22.20;99.90
16102;DHT22;56411;52.964;10.540;2023-08-21T09:03:25;22.20;99.90
16102;DHT22;56411;52.964;10.540;2023-08-21T09:05:53;22.20;99.90
16102;DHT22;56411;52.964;10.540;2023-08-21T09:08:20;22.30;99.90
16102;DHT22;56411;52.964;10.540;2023-08-21T09:10:48;22.40;99.90
16102;DHT22;56411;52.964;10.540;2023-08-21T09:13:18;22.40;99.90
16102;DHT22;56411;52.964;10.540;2023-08-21T09:15:47;22.30;99.90
16102;DHT22;56411;52.964;10.540;2023-08-21T09:18:16;22.30;99.90
16102;DHT22;56411;52.964;10.540;2023-08-21T09:20:43;22.30;99.90
16102;DHT22;56411;52.964;10.540;2023-08-21T09:23:14;22.40;99.90
16102;DHT22;56411;52.964;10.540;2023-08-21T09:25:44;22.50;99.90
16102;DHT22;56411;52.964;10.540;2023-08-21T09:28:13;22.60;99.90
16102;DHT22;56411;52.964;10.540;2023-08-21T09:30:44;22.60;99.90
16102;DHT22;56411;52.964;10.540;2023-08-21T09:33:12;22.70;99.90
16102;DHT22;56411;52.964;10.540;2023-08-21T09:35:43;22.60;99.90
16102;DHT22;56411;52.964;10.540;2023-08-21T09:38:10;22.80;99.90
16102;DHT22;56411;52.964;10.540;2023-08-21T09:40:42;22.80;99.90
16102;DHT22;56411;52.964;10.540;2023-08-21T09:43:11;23.00;99.90
16102;DHT22;56411;52.964;10.540;2023-08-21T09:45:38;23.00;99.90
16102;DHT22;56411;52.964;10.540;2023-08-21T09:48:07;23.00;99.90
16102;DHT22;56411;52.964;10.540;2023-08-21T09:50:34;23.00;99.90
16102;DHT22;56411;52.964;10.540;2023-08-21T09:53:03;23.20;99.90
16102;DHT22;56411;52.964;10.540;2023-08-21T09:55:33;23.40;99.90
16102;DHT22;56411;52.964;10.540;2023-08-21T09:58:01;23.40;99.90
16102;DHT22;56411;52.964;10.540;2023-08-21T10:00:30;23.50;99.90
16102;DHT22;56411;52.964;10.540;2023-08-21T10:03:01;23.60;99.90
16102;DHT22;56411;52.964;10.540;2023-08-21T10:05:29;23.70;99.90
16102;DHT22;56411;52.964;10.540;2023-08-21T10:08:00;23.70;99.90
16102;DHT22;56411;52.964;10.540;2023-08-21T10:10:31;23.80;99.90
16102;DHT22;56411;52.964;10.540;2023-08-21T10:12:59;24.00;99.90
16102;DHT22;56411;52.964;10.540;2023-08-21T10:15:28;24.20;99.90
16102;DHT22;56411;52.964;10.540;2023-08-21T10:17:56;24.30;99.90
16102;DHT22;56411;52.964;10.540;2023-08-21T12:21:48;31.10;99.90
16102;DHT22;56411;52.964;10.540;2023-08-21T12:25:30;30.80;99.90
16102;DHT22;56411;52.964;10.540;2023-08-21T12:28:01;31.50;99.60
16102;DHT22;56411;52.964;10.540;2023-08-21T12:33:56;31.00;99.50
16102;DHT22;56411;52.964;10.540;2023-08-21T12:36:40;31.10;99.40
16102;DHT22;56411;52.964;10.540;2023-08-21T12:39:08;30.30;98.20
16102;DHT22;56411;52.964;10.540;2023-08-21T12:41:42;30.10;98.40
16102;DHT22;56411;52.964;10.540;2023-08-21T12:44:10;30.10;98.90
16102;DHT22;56411;52.964;10.540;2023-08-21T12:46:39;29.70;97.30
16102;DHT22;56411;52.964;10.540;2023-08-21T12:49:45;28.70;98.00
16102;DHT22;56411;52.964;10.540;2023-08-21T12:52:21;28.40;99.70
16102;DHT22;56411;52.964;10.540;2023-08-21T12:54:50;28.20;99.10
16102;DHT22;56411;52.964;10.540;2023-08-21T12:57:31;27.90;99.40
16102;DHT22;56411;52.964;10.540;2023-08-21T13:00:12;27.80;99.90
16102;DHT22;56411;52.964;10.540;2023-08-21T13:02:40;27.60;99.90
16102;DHT22;56411;52.964;10.540;2023-08-21T13:05:08;27.50;99.90
16102;DHT22;56411;52.964;10.540;2023-08-21T13:07:37;27.30;99.90
16102;DHT22;56411;52.964;10.540;2023-08-21T13:10:04;27.30;99.90
16102;DHT22;56411;52.964;10.540;2023-08-21T13:12:32;27.30;99.90
16102;DHT22;56411;52.964;10.540;2023-08-21T13:15:00;27.30;99.90
16102;DHT22;56411;52.964;10.540;2023-08-21T13:17:27;27.10;99.90
16102;DHT22;56411;52.964;10.540;2023-08-21T13:19:55;27.20;99.90
16102;DHT22;56411;52.964;10.540;2023-08-21T13:22:22;27.20;99.90
16102;DHT22;56411;52.964;10.540;2023-08-21T13:24:51;26.80;99.90
16102;DHT22;56411;52.964;10.540;2023-08-21T13:27:18;26.60;99.90
16102;DHT22;56411;52.964;10.540;2023-08-21T13:29:46;26.80;99.90
16102;DHT22;56411;52.964;10.540;2023-08-21T13:32:14;27.10;99.90
16102;DHT22;56411;52.964;10.540;2023-08-21T13:34:41;27.30;99.90
16102;DHT22;56411;52.964;10.540;2023-08-21T13:37:09;27.40;99.90
16102;DHT22;56411;52.964;10.540;2023-08-21T13:39:37;27.90;99.90
16102;DHT22;56411;52.964;10.540;2023-08-21T13:42:07;28.80;99.90
16102;DHT22;56411;52.964;10.540;2023-08-21T13:44:35;29.10;99.90
16102;DHT22;56411;52.964;10.540;2023-08-21T13:47:03;29.30;99.90
16102;DHT22;56411;52.964;10.540;2023-08-21T13:49:30;28.90;99.90
16102;DHT22;56411;52.964;10.540;2023-08-21T13:51:59;28.10;99.90
16102;DHT22;56411;52.964;10.540;2023-08-21T13:54:26;27.60;99.90
16102;DHT22;56411;52.964;10.540;2023-08-21T13:56:58;27.40;99.90
16102;DHT22;56411;52.964;10.540;2023-08-21T13:59:27;27.40;99.90
16102;DHT22;56411;52.964;10.540;2023-08-21T14:01:55;27.40;99.90
16102;DHT22;56411;52.964;10.540;2023-08-21T14:04:24;27.50;99.90
16102;DHT22;56411;52.964;10.540;2023-08-21T14:06:53;27.70;99.90
16102;DHT22;56411;52.964;10.540;2023-08-21T14:09:21;27.70;99.90
16102;DHT22;56411;52.964;10.540;2023-08-21T14:11:48;27.80;99.90
16102;DHT22;56411;52.964;10.540;2023-08-21T14:14:15;27.80;99.90
16102;DHT22;56411;52.964;10.540;2023-08-21T14:16:44;28.50;99.90
16102;DHT22;56411;52.964;10.540;2023-08-21T14:19:12;29.60;99.90
16102;DHT22;56411;52.964;10.540;2023-08-21T14:21:54;30.40;99.40
16102;DHT22;56411;52.964;10.540;2023-08-21T14:24:21;30.90;98.10
16102;DHT22;56411;52.964;10.540;2023-08-21T14:27:15;31.00;97.30
16102;DHT22;56411;52.964;10.540;2023-08-21T14:30:09;30.70;96.60
16102;DHT22;56411;52.964;10.540;2023-08-21T14:32:38;30.30;97.10
16102;DHT22;56411;52.964;10.540;2023-08-21T14:35:06;30.80;95.60
16102;DHT22;56411;52.964;10.540;2023-08-21T14:37:34;31.50;95.30
16102;DHT22;56411;52.964;10.540;2023-08-21T14:40:03;32.20;96.00
16102;DHT22;56411;52.964;10.540;2023-08-21T14:42:33;32.50;94.50
16102;DHT22;56411;52.964;10.540;2023-08-21T14:45:01;32.10;94.10
16102;DHT22;56411;52.964;10.540;2023-08-21T14:47:29;31.70;93.50
16102;DHT22;56411;52.964;10.540;2023-08-21T14:49:58;32.10;94.20
16102;DHT22;56411;52.964;10.540;2023-08-21T14:52:25;32.10;93.90
16102;DHT22;56411;52.964;10.540;2023-08-21T14:54:53;32.90;93.20
16102;DHT22;56411;52.964;10.540;2023-08-21T14:57:20;32.90;91.60
16102;DHT22;56411;52.964;10.540;2023-08-21T14:59:47;32.50;92.60
16102;DHT22;56411;52.964;10.540;2023-08-21T15:02:15;32.40;93.00
16102;DHT22;56411;52.964;10.540;2023-08-21T15:04:43;32.70;93.10
16102;DHT22;56411;52.964;10.540;2023-08-21T15:07:11;33.10;92.20
16102;DHT22;56411;52.964;10.540;2023-08-21T15:09:39;33.20;91.20
16102;DHT22;56411;52.964;10.540;2023-08-21T15:12:07;32.70;91.50
16102;DHT22;56411;52.964;10.540;2023-08-21T15:14:34;32.20;91.50
16102;DHT22;56411;52.964;10.540;2023-08-21T15:17:02;32.20;91.80
16102;DHT22;56411;52.964;10.540;2023-08-21T15:19:29;32.10;92.80
16102;DHT22;56411;52.964;10.540;2023-08-21T15:21:57;32.60;91.90
16102;DHT22;56411;52.964;10.540;2023-08-21T15:24:27;32.90;90.90
16102;DHT22;56411;52.964;10.540;2023-08-21T15:26:55;33.10;91.30
16102;DHT22;56411;52.964;10.540;2023-08-21T15:29:27;33.10;91.20
16102;DHT22;56411;52.964;10.540;2023-08-21T15:32:31;33.10;92.30
16102;DHT22;56411;52.964;10.540;2023-08-21T15:36:49;33.50;92.00
16102;DHT22;56411;52.964;10.540;2023-08-21T15:38:36;34.30;91.90
16102;DHT22;56411;52.964;10.540;2023-08-21T15:41:05;34.80;91.40
16102;DHT22;56411;52.964;10.540;2023-08-21T15:43:36;36.10;90.40
16102;DHT22;56411;52.964;10.540;2023-08-21T15:46:03;37.00;88.70
16102;DHT22;56411;52.964;10.540;2023-08-21T15:48:32;36.90;85.90
16102;DHT22;56411;52.964;10.540;2023-08-21T15:51:09;36.40;82.40
16102;DHT22;56411;52.964;10.540;2023-08-21T15:53:39;35.00;84.10
16102;DHT22;56411;52.964;10.540;2023-08-21T15:56:40;34.30;88.70
16102;DHT22;56411;52.964;10.540;2023-08-21T15:59:16;33.90;89.50
16102;DHT22;56411;52.964;10.540;2023-08-21T16:01:45;34.20;89.40
16102;DHT22;56411;52.964;10.540;2023-08-21T16:04:17;34.50;86.90
16102;DHT22;56411;52.964;10.540;2023-08-21T16:06:47;33.60;85.40
16102;DHT22;56411;52.964;10.540;2023-08-21T16:09:18;32.40;84.90
16102;DHT22;56411;52.964;10.540;2023-08-21T16:11:51;32.10;86.00
16102;DHT22;56411;52.964;10.540;2023-08-21T16:14:19;32.10;90.30
16102;DHT22;56411;52.964;10.540;2023-08-21T16:17:18;32.60;89.30
16102;DHT22;56411;52.964;10.540;2023-08-21T16:20:29;33.30;85.30
16102;DHT22;56411;52.964;10.540;2023-08-21T16:41:16;33.00;88.40
16102;DHT22;56411;52.964;10.540;2023-08-21T17:25:32;25.30;99.90
16102;DHT22;56411;52.964;10.540;2023-08-21T17:31:29;24.70;99.90
16102;DHT22;56411;52.964;10.540;2023-08-21T17:44:47;24.00;99.90
16102;DHT22;56411;52.964;10.540;2023-08-21T17:51:42;23.80;99.90
16102;DHT22;56411;52.964;10.540;2023-08-21T17:58:09;23.40;99.90
16102;DHT22;56411;52.964;10.540;2023-08-21T18:04:34;23.00;99.90
16102;DHT22;56411;52.964;10.540;2023-08-21T18:07:14;22.90;99.90
16102;DHT22;56411;52.964;10.540;2023-08-21T18:09:58;22.70;99.90
16102;DHT22;56411;52.964;10.540;2023-08-21T18:12:28;22.60;99.90
16102;DHT22;56411;52.964;10.540;2023-08-21T18:15:33;22.40;99.90
16102;DHT22;56411;52.964;10.540;2023-08-21T18:21:56;22.00;99.90
16102;DHT22;56411;52.964;10.540;2023-08-21T18:24:23;21.70;99.90
16102;DHT22;56411;52.964;10.540;2023-08-21T18:26:51;21.50;99.90
16102;DHT22;56411;52.964;10.540;2023-08-21T18:29:19;21.30;99.90
16102;DHT22;56411;52.964;10.540;2023-08-21T18:31:46;21.30;99.90
16102;DHT22;56411;52.964;10.540;2023-08-21T18:34:14;21.20;99.90
16102;DHT22;56411;52.964;10.540;2023-08-21T18:36:41;21.10;99.90
16102;DHT22;56411;52.964;10.540;2023-08-21T18:39:10;21.00;99.90
16102;DHT22;56411;52.964;10.540;2023-08-21T18:41:37;21.00;99.90
16102;DHT22;56411;52.964;10.540;2023-08-21T18:44:08;20.90;99.90
16102;DHT22;56411;52.964;10.540;2023-08-21T18:46:35;20.80;99.90
16102;DHT22;56411;52.964;10.540;2023-08-21T18:49:03;20.70;99.90
16102;DHT22;56411;52.964;10.540;2023-08-21T18:51:30;20.70;99.90
16102;DHT22;56411;52.964;10.540;2023-08-21T18:53:57;20.60;99.90
16102;DHT22;56411;52.964;10.540;2023-08-21T18:56:26;20.40;99.90
16102;DHT22;56411;52.964;10.540;2023-08-21T18:58:53;20.30;99.90
16102;DHT22;56411;52.964;10.540;2023-08-21T19:01:20;20.20;99.90
16102;DHT22;56411;52.964;10.540;2023-08-21T19:03:49;20.00;99.90
16102;DHT22;56411;52.964;10.540;2023-08-21T19:06:16;19.90;99.90
16102;DHT22;56411;52.964;10.540;2023-08-21T19:08:43;19.80;99.90
16102;DHT22;56411;52.964;10.540;2023-08-21T19:11:10;19.80;99.90
16102;DHT22;56411;52.964;10.540;2023-08-21T19:13:40;19.80;99.90
16102;DHT22;56411;52.964;10.540;2023-08-21T19:16:07;19.90;99.90
16102;DHT22;56411;52.964;10.540;2023-08-21T19:18:34;19.90;99.90
16102;DHT22;56411;52.964;10.540;2023-08-21T19:21:01;19.60;99.90
16102;DHT22;56411;52.964;10.540;2023-08-21T19:23:28;19.40;99.90
16102;DHT22;56411;52.964;10.540;2023-08-21T19:25:56;19.20;99.90
16102;DHT22;56411;52.964;10.540;2023-08-21T19:28:23;19.00;99.90
16102;DHT22;56411;52.964;10.540;2023-08-21T19:30:51;18.90;99.90
16102;DHT22;56411;52.964;10.540;2023-08-21T19:33:19;18.70;99.90
16102;DHT22;56411;52.964;10.540;2023-08-21T19:35:49;18.60;99.90
16102;DHT22;56411;52.964;10.540;2023-08-21T19:38:16;18.50;99.90
16102;DHT22;56411;52.964;10.540;2023-08-21T19:40:45;18.40;99.90
16102;DHT22;56411;52.964;10.540;2023-08-21T19:43:15;18.30;99.90
16102;DHT22;56411;52.964;10.540;2023-08-21T19:45:42;18.20;99.90
16102;DHT22;56411;52.964;10.540;2023-08-21T19:48:13;18.20;99.90
16102;DHT22;56411;52.964;10.540;2023-08-21T19:50:40;18.20;99.90
16102;DHT22;56411;52.964;10.540;2023-08-21T19:53:08;18.00;99.90
16102;DHT22;56411;52.964;10.540;2023-08-21T19:55:36;18.00;99.90
16102;DHT22;56411;52.964;10.540;2023-08-21T19:58:03;17.90;99.90
16102;DHT22;56411;52.964;10.540;2023-08-21T20:00:32;17.80;99.90
16102;DHT22;56411;52.964;10.540;2023-08-21T20:03:01;17.90;99.90
16102;DHT22;56411;52.964;10.540;2023-08-21T20:05:30;17.90;99.90
16102;DHT22;56411;52.964;10.540;2023-08-21T20:08:00;17.90;99.90
16102;DHT22;56411;52.964;10.540;2023-08-21T20:10:28;17.70;99.90
16102;DHT22;56411;52.964;10.540;2023-08-21T20:12:57;17.60;99.90
16102;DHT22;56411;52.964;10.540;2023-08-21T20:19:05;17.30;99.90
16102;DHT22;56411;52.964;10.540;2023-08-21T20:32:24;17.30;99.90
16102;DHT22;56411;52.964;10.540;2023-08-21T20:35:05;17.00;99.90
16102;DHT22;56411;52.964;10.540;2023-08-21T20:37:32;16.90;99.90
16102;DHT22;56411;52.964;10.540;2023-08-21T20:40:00;16.80;99.90
16102;DHT22;56411;52.964;10.540;2023-08-21T20:42:28;16.80;99.90
16102;DHT22;56411;52.964;10.540;2023-08-21T20:44:56;16.80;99.90
16102;DHT22;56411;52.964;10.540;2023-08-21T20:47:29;16.80;99.90
16102;DHT22;56411;52.964;10.540;2023-08-21T20:49:57;16.80;99.90
16102;DHT22;56411;52.964;10.540;2023-08-21T20:52:24;16.80;99.90
16102;DHT22;56411;52.964;10.540;2023-08-21T20:54:54;16.80;99.90
16102;DHT22;56411;52.964;10.540;2023-08-21T20:57:23;16.70;99.90
16102;DHT22;56411;52.964;10.540;2023-08-21T20:59:50;16.60;99.90
16102;DHT22;56411;52.964;10.540;2023-08-21T21:02:18;16.50;99.90
16102;DHT22;56411;52.964;10.540;2023-08-21T21:04:51;16.40;99.90
16102;DHT22;56411;52.964;10.540;2023-08-21T21:07:20;16.30;99.90
16102;DHT22;56411;52.964;10.540;2023-08-21T21:09:47;16.30;99.90
16102;DHT22;56411;52.964;10.540;2023-08-21T21:12:14;16.30;99.90
16102;DHT22;56411;52.964;10.540;2023-08-21T21:15:00;16.30;99.90
16102;DHT22;56411;52.964;10.540;2023-08-21T21:17:30;16.20;99.90
16102;DHT22;56411;52.964;10.540;2023-08-21T21:20:05;16.30;99.90
16102;DHT22;56411;52.964;10.540;2023-08-21T21:22:35;16.20;99.90
16102;DHT22;56411;52.964;10.540;2023-08-21T21:25:03;16.10;99.90
16102;DHT22;56411;52.964;10.540;2023-08-21T21:27:32;15.90;99.90
16102;DHT22;56411;52.964;10.540;2023-08-21T21:29:59;16.00;99.90
16102;DHT22;56411;52.964;10.540;2023-08-21T21:32:27;16.00;99.90
16102;DHT22;56411;52.964;10.540;2023-08-21T21:34:54;15.90;99.90
16102;DHT22;56411;52.964;10.540;2023-08-21T21:37:24;15.80;99.90
16102;DHT22;56411;52.964;10.540;2023-08-21T21:39:52;15.70;99.90
16102;DHT22;56411;52.964;10.540;2023-08-21T21:46:16;15.60;99.90
16102;DHT22;56411;52.964;10.540;2023-08-21T21:49:00;15.60;99.90
16102;DHT22;56411;52.964;10.540;2023-08-21T21:51:28;15.60;99.90
16102;DHT22;56411;52.964;10.540;2023-08-21T21:53:57;15.60;99.90
16102;DHT22;56411;52.964;10.540;2023-08-21T21:57:03;15.50;99.90
16102;DHT22;56411;52.964;10.540;2023-08-21T22:02:19;15.40;99.90
16102;DHT22;56411;52.964;10.540;2023-08-21T22:04:48;15.30;99.90
16102;DHT22;56411;52.964;10.540;2023-08-21T22:07:24;15.30;99.90
16102;DHT22;56411;52.964;10.540;2023-08-21T22:10:03;15.20;99.90
16102;DHT22;56411;52.964;10.540;2023-08-21T22:12:30;15.10;99.90
16102;DHT22;56411;52.964;10.540;2023-08-21T22:14:57;15.10;99.90
16102;DHT22;56411;52.964;10.540;2023-08-21T22:17:43;15.10;99.90
16102;DHT22;56411;52.964;10.540;2023-08-21T22:20:13;15.00;99.90
16102;DHT22;56411;52.964;10.540;2023-08-21T22:22:41;15.10;99.90
16102;DHT22;56411;52.964;10.540;2023-08-21T22:25:10;15.00;99.90
16102;DHT22;56411;52.964;10.540;2023-08-21T22:27:37;14.90;99.90
16102;DHT22;56411;52.964;10.540;2023-08-21T22:30:07;15.00;99.90
16102;DHT22;56411;52.964;10.540;2023-08-21T22:32:34;15.00;99.90
16102;DHT22;56411;52.964;10.540;2023-08-21T22:35:03;15.00;99.90
16102;DHT22;56411;52.964;10.540;2023-08-21T22:37:31;15.20;99.90
16102;DHT22;56411;52.964;10.540;2023-08-21T22:39:59;15.30;99.90
16102;DHT22;56411;52.964;10.540;2023-08-21T22:42:30;15.40;99.90
16102;DHT22;56411;52.964;10.540;2023-08-21T22:44:59;15.20;99.90
16102;DHT22;56411;52.964;10.540;2023-08-21T22:47:28;15.00;99.90
16102;DHT22;56411;52.964;10.540;2023-08-21T22:49:55;15.00;99.90
16102;DHT22;56411;52.964;10.540;2023-08-21T23:19:21;14.30;99.90
16102;DHT22;56411;52.964;10.540;2023-08-21T23:21:50;14.40;99.90
16102;DHT22;56411;52.964;10.540;2023-08-21T23:24:18;14.50;99.90
16102;DHT22;56411;52.964;10.540;2023-08-21T23:26:45;14.60;99.90
16102;DHT22;56411;52.964;10.540;2023-08-21T23:29:13;14.50;99.90
16102;DHT22;56411;52.964;10.540;2023-08-21T23:31:40;14.30;99.90
16102;DHT22;56411;52.964;10.540;2023-08-21T23:34:07;14.20;99.90
16102;DHT22;56411;52.964;10.540;2023-08-21T23:36:37;14.30;99.90
16102;DHT22;56411;52.964;10.540;2023-08-21T23:39:05;14.20;99.90
